Time;durP1;ratioP1;P1;durP2;ratioP2;P2;SDS_P1;SDS_P2;PMS_P1;PMS_P2;Temp;Humidity;BMP_temperature;BMP_pressure;BME280_temperature;BME280_humidity;BME280_pressure;Samples;Min_cycle;Max_cycle;Signal;HPM_P1;HPM_P2
2023/07/23 00:12:31;;;;;;;1.23;1.13;;;;;;;25.81;44.77;100349.63;41846574;28;20052;-84
2023/07/23 00:32:31;;;;;;;1.20;1.10;;;;;;;25.79;44.42;100357.69;41834747;28;20122;-84
2023/07/23 00:52:32;;;;;;;1.20;1.02;;;;;;;25.78;44.51;100364.03;41817503;28;20021;-83
2023/07/23 01:12:33;;;;;;;1.88;1.10;;;;;;;25.77;44.87;100350.88;41821359;28;20041;-85
2023/07/23 01:32:35;;;;;;;1.20;1.10;;;;;;;25.76;44.66;100362.50;41788598;28;20067;-85
2023/07/23 01:52:35;;;;;;;1.20;1.10;;;;;;;25.75;44.98;100358.19;41798037;28;20037;-85
2023/07/23 02:12:36;;;;;;;1.30;1.20;;;;;;;25.73;44.35;100361.81;41798675;28;20072;-86
2023/07/23 02:32:36;;;;;;;1.23;1.13;;;;;;;25.73;44.57;100384.81;41800881;28;20045;-85
2023/07/23 02:52:37;;;;;;;1.17;1.08;;;;;;;25.73;44.54;100383.03;41776244;28;20482;-85
2023/07/23 03:12:38;;;;;;;1.17;1.08;;;;;;;25.72;44.81;100381.34;41785355;28;20048;-85
2023/07/23 03:32:39;;;;;;;1.17;1.10;;;;;;;25.72;44.59;100381.34;41784238;28;20128;-85
2023/07/23 03:52:39;;;;;;;1.48;1.25;;;;;;;25.71;44.81;100377.03;41772863;28;22428;-84
2023/07/23 04:12:40;;;;;;;1.20;1.10;;;;;;;25.71;44.61;100376.22;41791711;28;20118;-84
2023/07/23 04:32:40;;;;;;;1.15;1.05;;;;;;;25.69;44.50;100384.28;41799623;28;20075;-84
2023/07/23 04:52:41;;;;;;;1.17;1.08;;;;;;;25.71;44.47;100392.13;41798960;28;20140;-84
2023/07/23 05:12:42;;;;;;;1.30;1.20;;;;;;;25.71;44.67;100408.84;41799750;28;20041;-84
2023/07/23 05:32:44;;;;;;;1.10;1.10;;;;;;;25.73;44.80;100427.25;41820636;28;20017;-84
2023/07/23 05:52:44;;;;;;;2.17;1.10;;;;;;;25.73;44.62;100446.69;41802431;28;20477;-85
2023/07/23 06:12:45;;;;;;;1.90;1.42;;;;;;;25.74;44.47;100436.88;41813103;28;20052;-83
2023/07/23 06:32:45;;;;;;;1.60;1.30;;;;;;;25.76;44.81;100448.19;41820900;28;21098;-84
2023/07/23 06:52:46;;;;;;;1.52;1.23;;;;;;;25.80;44.79;100456.69;41796651;28;20037;-84
2023/07/23 07:12:48;;;;;;;1.17;1.08;;;;;;;25.83;44.54;100453.72;41789813;28;20051;-84
2023/07/23 07:32:48;;;;;;;1.70;1.50;;;;;;;25.84;44.64;100445.66;41762260;28;20067;-84
2023/07/23 07:52:48;;;;;;;1.35;1.25;;;;;;;25.85;44.67;100438.50;41796153;28;20105;-84
2023/07/23 08:12:49;;;;;;;1.13;1.02;;;;;;;25.87;44.62;100433.91;41817432;28;20049;-84
2023/07/23 08:32:51;;;;;;;2.00;1.20;;;;;;;25.88;44.67;100436.41;41791272;28;20049;-85
2023/07/23 08:52:53;;;;;;;1.45;1.35;;;;;;;25.89;44.76;100432.75;41803634;28;20056;-85
2023/07/23 09:12:53;;;;;;;0.95;0.95;;;;;;;25.92;44.62;100439.59;41798731;28;20530;-85
2023/07/23 09:33:06;;;;;;;1.83;1.30;;;;;;;25.94;44.67;100432.31;41821458;28;20044;-85
2023/07/23 09:53:09;;;;;;;1.30;1.20;;;;;;;25.95;44.75;100428.69;41813787;28;20096;-85
2023/07/23 10:13:10;;;;;;;1.38;1.27;;;;;;;25.97;44.62;100405.47;41815795;28;20116;-85
2023/07/23 10:33:11;;;;;;;1.10;1.00;;;;;;;26.00;44.61;100393.72;41791925;28;20076;-85
2023/07/23 10:53:12;;;;;;;2.88;1.17;;;;;;;26.05;44.55;100375.56;41789300;28;20397;-87
2023/07/23 11:13:15;;;;;;;1.23;1.13;;;;;;;26.12;44.61;100357.22;41780980;28;20464;-85
2023/07/23 11:33:17;;;;;;;1.33;1.20;;;;;;;26.19;44.51;100334.41;41807752;28;20075;-86
2023/07/23 11:53:32;;;;;;;6.13;1.55;;;;;;;26.32;45.79;100312.78;41704529;28;20061;-78
2023/07/23 12:13:33;;;;;;;2.67;1.40;;;;;;;26.43;45.66;100288.63;41770083;28;20044;-83
2023/07/23 12:33:34;;;;;;;2.58;1.77;;;;;;;26.52;46.77;100263.81;41743417;28;20094;-83
2023/07/23 12:53:34;;;;;;;2.72;1.70;;;;;;;26.62;46.39;100246.91;41796226;28;20049;-81
2023/07/23 13:13:35;;;;;;;2.85;1.60;;;;;;;26.76;46.40;100229.59;41832666;28;20049;-85
2023/07/23 13:33:36;;;;;;;4.60;1.60;;;;;;;26.87;46.43;100216.00;41739493;28;20049;-81
2023/07/23 13:53:37;;;;;;;4.43;1.75;;;;;;;27.05;46.92;100197.31;41764738;28;20087;-81
2023/07/23 14:13:39;;;;;;;6.30;1.67;;;;;;;27.17;46.75;100187.16;41751826;28;20045;-77
2023/07/23 14:33:40;;;;;;;3.75;1.70;;;;;;;27.23;45.90;100172.41;41783815;28;20532;-85
2023/07/23 14:53:40;;;;;;;2.10;1.67;;;;;;;27.27;45.34;100152.47;41799198;28;20095;-86
2023/07/23 15:13:41;;;;;;;2.63;1.60;;;;;;;27.33;45.19;100146.47;41781108;28;20041;-85
2023/07/23 15:33:42;;;;;;;7.47;1.75;;;;;;;27.38;46.07;100136.19;41780643;28;20146;-84
2023/07/23 15:53:43;;;;;;;6.78;2.42;;;;;;;27.44;37.90;100116.09;41664859;28;20044;-78
2023/07/23 16:13:44;;;;;;;3.25;2.08;;;;;;;27.52;36.58;100094.00;41654288;28;20112;-77
2023/07/23 16:33:45;;;;;;;3.53;2.00;;;;;;;27.56;37.01;100071.38;41688547;28;20049;-77
2023/07/23 16:53:46;;;;;;;2.63;1.90;;;;;;;27.61;37.09;100071.72;41740418;28;20036;-83
2023/07/23 17:13:49;;;;;;;3.42;1.95;;;;;;;27.64;36.30;100072.19;41791231;28;20045;-82
2023/07/23 17:33:50;;;;;;;2.60;2.15;;;;;;;27.59;33.11;100065.75;41759854;28;20051;-83
2023/07/23 17:53:51;;;;;;;2.72;2.08;;;;;;;27.48;33.99;100061.59;41747564;28;20049;-78
2023/07/23 18:13:52;;;;;;;4.72;2.20;;;;;;;27.39;34.76;100059.91;41671681;28;20469;-82
2023/07/23 18:33:53;;;;;;;3.22;2.30;;;;;;;27.23;35.89;100061.59;41732808;28;20049;-80
2023/07/23 18:53:54;;;;;;;3.67;2.70;;;;;;;27.13;36.45;100066.25;41770103;28;20040;-86
2023/07/23 19:13:56;;;;;;;5.18;2.75;;;;;;;27.05;37.39;100072.41;41767743;28;20065;-85
2023/07/23 19:33:58;;;;;;;4.50;2.55;;;;;;;26.95;38.67;100077.03;41764334;28;20517;-77
2023/07/23 19:54:00;;;;;;;6.10;3.00;;;;;;;26.79;41.40;100088.47;41647731;28;20083;-75
2023/07/23 20:14:01;;;;;;;4.88;2.83;;;;;;;26.85;42.11;100106.41;41725188;28;20037;-76
2023/07/23 20:34:03;;;;;;;4.90;2.90;;;;;;;26.73;43.96;100119.13;41705339;28;20041;-75
2023/07/23 20:54:04;;;;;;;6.38;3.50;;;;;;;26.72;44.64;100120.16;41693895;28;20042;-76
2023/07/23 21:14:05;;;;;;;7.35;3.63;;;;;;;26.47;46.85;100111.25;41626681;28;20530;-74
2023/07/23 21:34:05;;;;;;;4.78;3.10;;;;;;;26.08;48.59;100099.31;41725412;28;20065;-74
2023/07/23 21:54:05;;;;;;;6.20;3.30;;;;;;;25.96;49.34;100108.50;41721908;28;20048;-75
2023/07/23 22:14:07;;;;;;;6.07;3.50;;;;;;;26.05;49.21;100124.31;41687296;28;20612;-75
2023/07/23 22:34:07;;;;;;;4.20;3.65;;;;;;;26.07;49.43;100121.53;41574873;28;20409;-74
2023/07/23 22:54:08;;;;;;;5.95;4.18;;;;;;;25.81;50.78;100102.97;41554144;28;20049;-76
2023/07/23 23:14:08;;;;;;;4.57;3.28;;;;;;;25.62;51.36;100086.28;41532721;28;20112;-76
2023/07/23 23:34:09;;;;;;;5.95;3.80;;;;;;;25.49;52.30;100093.81;41528987;28;20041;-76
2023/07/23 23:54:09;;;;;;;5.95;3.97;;;;;;;25.37;52.43;100070.16;41555824;28;20413;-75
